Time;durP1;ratioP1;P1;durP2;ratioP2;P2;SDS_P1;SDS_P2;PMS_P1;PMS_P2;Temp;Humidity;BMP_temperature;BMP_pressure;BME280_temperature;BME280_humidity;BME280_pressure;Samples;Min_cycle;Max_cycle;Signal;HPM_P1;HPM_P2
2023/02/13 00:01:26;;;;;;;20.67;6.83;;;;;;;;;;5093109;28;20016;-76
2023/02/13 00:03:51;;;;;;;22.93;7.07;;;;;;;;;;5082067;28;20043;-76
2023/02/13 00:06:16;;;;;;;17.63;6.53;;;;;;;;;;5091338;28;20035;-76
2023/02/13 00:08:41;;;;;;;18.70;5.93;;;;;;;;;;5092803;28;20069;-76
2023/02/13 00:11:06;;;;;;;18.27;7.40;;;;;;;;;;5092508;28;20378;-76
2023/02/13 00:13:33;;;;;;;19.80;7.07;;;;;;;;;;5092485;28;20169;-76
2023/02/13 00:15:59;;;;;;;24.67;7.63;;;;;;;;;;5078029;28;20119;-76
2023/02/13 00:18:25;;;;;;;23.83;6.80;;;;;;;;;;5084304;28;20059;-77
2023/02/13 00:20:57;;;;;;;18.17;7.17;;;;;;;;;;5090629;28;20028;-76
2023/02/13 00:23:22;;;;;;;;;;;;;;;;;;5093169;28;20024;-76
2023/02/13 00:25:48;;;;;;;16.83;6.18;;;;;;;;;;5089768;28;19908;-76
2023/02/13 00:28:13;;;;;;;22.33;6.73;;;;;;;;;;5081103;28;20167;-76
2023/02/13 00:30:38;;;;;;;18.67;6.13;;;;;;;;;;5092609;28;20016;-76
2023/02/13 00:33:03;;;;;;;24.00;7.00;;;;;;;;;;5092070;28;20015;-76
2023/02/13 00:35:28;;;;;;;20.20;7.50;;;;;;;;;;5090466;28;20005;-76
2023/02/13 00:37:53;;;;;;;20.07;6.80;;;;;;;;;;5090982;28;20111;-76
2023/02/13 00:40:19;;;;;;;17.43;6.17;;;;;;;;;;5079660;28;20048;-76
2023/02/13 00:42:44;;;;;;;19.83;7.37;;;;;;;;;;5092372;28;20324;-76
2023/02/13 00:45:09;;;;;;;18.63;5.97;;;;;;;;;;5087375;28;20554;-76
2023/02/13 00:47:34;;;;;;;19.37;6.80;;;;;;;;;;5078599;28;20077;-76
2023/02/13 00:49:59;;;;;;;18.67;7.13;;;;;;;;;;5071311;28;20032;-76
2023/02/13 00:52:25;;;;;;;28.67;7.47;;;;;;;;;;5080254;28;20023;-76
2023/02/13 00:54:50;;;;;;;18.80;6.40;;;;;;;;;;5077637;28;20047;-76
2023/02/13 00:57:15;;;;;;;15.20;5.87;;;;;;;;;;5089290;28;20016;-76
2023/02/13 00:59:40;;;;;;;16.73;5.20;;;;;;;;;;5083910;28;20106;-76
2023/02/13 01:02:05;;;;;;;16.67;6.03;;;;;;;;;;5090297;28;20018;-76
2023/02/13 01:04:31;;;;;;;19.60;6.10;;;;;;;;;;5091724;28;20012;-76
2023/02/13 01:06:56;;;;;;;13.33;5.13;;;;;;;;;;5078776;28;20398;-77
2023/02/13 01:09:21;;;;;;;22.37;6.37;;;;;;;;;;5090131;28;20475;-76
2023/02/13 01:11:46;;;;;;;17.97;6.80;;;;;;;;;;5074772;28;20024;-76
2023/02/13 01:14:12;;;;;;;17.70;6.07;;;;;;;;;;5091282;28;20115;-76
2023/02/13 01:16:37;;;;;;;17.77;6.13;;;;;;;;;;5091714;28;20111;-76
2023/02/13 01:19:03;;;;;;;15.37;4.80;;;;;;;;;;5091306;28;20366;-76
2023/02/13 01:21:28;;;;;;;13.50;4.97;;;;;;;;;;5089384;28;20379;-76
2023/02/13 01:23:54;;;;;;;18.27;6.63;;;;;;;;;;5075392;28;20112;-76
2023/02/13 01:26:20;;;;;;;19.07;6.53;;;;;;;;;;5088393;28;20024;-76
2023/02/13 01:28:46;;;;;;;19.30;6.23;;;;;;;;;;5075780;28;20032;-76
2023/02/13 01:31:11;;;;;;;14.77;6.27;;;;;;;;;;5090072;28;20020;-76
2023/02/13 01:33:36;;;;;;;25.33;7.37;;;;;;;;;;5089815;28;20088;-76
2023/02/13 01:36:09;;;;;;;16.13;5.03;;;;;;;;;;5085602;28;20020;-76
2023/02/13 01:38:34;;;;;;;22.17;6.70;;;;;;;;;;5091544;28;20020;-76
2023/02/13 01:41:00;;;;;;;23.10;6.90;;;;;;;;;;5083058;28;20028;-76
2023/02/13 01:43:41;;;;;;;18.07;6.40;;;;;;;;;;5090792;28;20020;-76
2023/02/13 01:46:06;;;;;;;28.33;8.93;;;;;;;;;;5081725;28;20662;-76
2023/02/13 01:48:31;;;;;;;30.27;8.83;;;;;;;;;;5075874;28;20020;-76
2023/02/13 01:50:59;;;;;;;39.67;10.63;;;;;;;;;;5090875;28;20035;-76
2023/02/13 01:53:27;;;;;;;26.20;8.13;;;;;;;;;;5089965;28;20494;-76
2023/02/13 01:55:59;;;;;;;30.20;9.37;;;;;;;;;;5091312;28;20051;-76
2023/02/13 01:58:26;;;;;;;38.38;10.45;;;;;;;;;;5087560;28;20448;-76
2023/02/13 02:00:51;;;;;;;28.70;9.57;;;;;;;;;;5087825;28;20048;-76
2023/02/13 02:03:23;;;;;;;32.33;9.77;;;;;;;;;;5085705;28;20070;-76
2023/02/13 02:05:48;;;;;;;30.77;9.30;;;;;;;;;;5088954;28;20487;-76
2023/02/13 02:08:14;;;;;;;26.40;9.23;;;;;;;;;;5085569;28;20011;-76
2023/02/13 02:10:39;;;;;;;33.00;8.80;;;;;;;;;;5090887;28;20031;-76
2023/02/13 02:13:05;;;;;;;36.43;10.27;;;;;;;;;;5093595;28;20020;-77
2023/02/13 02:15:30;;;;;;;34.90;9.13;;;;;;;;;;5093338;28;20070;-77
2023/02/13 02:17:55;;;;;;;25.87;8.57;;;;;;;;;;5095043;28;20494;-76
2023/02/13 02:20:39;;;;;;;24.80;7.90;;;;;;;;;;5094610;28;20029;-76
2023/02/13 02:23:22;;;;;;;24.93;7.40;;;;;;;;;;5082536;28;20017;-76
2023/02/13 02:26:06;;;;;;;23.73;7.37;;;;;;;;;;5072694;28;20032;-76
2023/02/13 02:28:50;;;;;;;24.40;7.67;;;;;;;;;;5078489;28;20364;-76
2023/02/13 02:31:34;;;;;;;18.83;6.47;;;;;;;;;;5063007;28;20016;-77
2023/02/13 02:33:59;;;;;;;15.67;6.30;;;;;;;;;;5090090;28;20012;-76
2023/02/13 02:36:27;;;;;;;20.50;6.67;;;;;;;;;;5094357;28;20019;-76
2023/02/13 02:39:02;;;;;;;17.23;5.80;;;;;;;;;;5093809;28;20051;-77
2023/02/13 02:41:42;;;;;;;17.53;6.17;;;;;;;;;;5084712;28;20052;-76
2023/02/13 02:44:11;;;;;;;17.50;6.50;;;;;;;;;;5088915;28;20062;-76
2023/02/13 02:49:57;;;;;;;25.20;6.93;;;;;;;;;;5089974;28;20016;-76
2023/02/13 02:52:17;;;;;;;26.07;7.97;;;;;;;;;;5086291;28;20031;-76
2023/02/13 02:55:06;;;;;;;25.63;8.27;;;;;;;;;;5084571;28;20024;-76
2023/02/13 03:14:02;;;;;;;21.70;7.33;;;;;;;;;;5059711;28;20517;-76
2023/02/13 03:22:36;;;;;;;18.07;7.07;;;;;;;;;;5073463;28;20245;-76
2023/02/13 03:25:06;;;;;;;19.43;7.27;;;;;;;;;;5055811;28;20478;-77
2023/02/13 03:30:18;;;;;;;21.37;6.73;;;;;;;;;;5071974;28;20419;-76
2023/02/13 03:33:02;;;;;;;19.23;7.17;;;;;;;;;;5073166;28;20021;-76
2023/02/13 03:38:38;;;;;;;14.70;6.60;;;;;;;;;;5073099;28;20051;-76
2023/02/13 03:41:19;;;;;;;16.50;6.50;;;;;;;;;;5071847;28;20441;-76
2023/02/13 03:43:49;;;;;;;18.10;6.60;;;;;;;;;;5071791;28;20036;-76
2023/02/13 03:46:15;;;;;;;17.70;5.87;;;;;;;;;;5061247;28;20765;-76
2023/02/13 03:51:44;;;;;;;13.97;5.33;;;;;;;;;;5072954;28;20047;-76
2023/02/13 03:59:56;;;;;;;15.03;5.50;;;;;;;;;;5072065;28;20085;-76
2023/02/13 04:02:23;;;;;;;12.70;4.80;;;;;;;;;;5072811;28;20452;-76
2023/02/13 04:04:56;;;;;;;12.73;4.83;;;;;;;;;;5070337;28;20032;-76
2023/02/13 04:07:30;;;;;;;13.10;5.43;;;;;;;;;;5072779;28;20028;-76
2023/02/13 04:09:57;;;;;;;14.30;5.33;;;;;;;;;;5072197;28;20471;-76
2023/02/13 04:12:43;;;;;;;17.67;6.03;;;;;;;;;;5072887;28;20032;-76
2023/02/13 04:15:13;;;;;;;19.13;5.93;;;;;;;;;;5070402;28;20029;-76
2023/02/13 04:17:44;;;;;;;14.30;5.77;;;;;;;;;;5070384;28;20027;-76
2023/02/13 04:20:09;;;;;;;10.60;4.70;;;;;;;;;;5072204;28;20050;-76
2023/02/13 04:22:40;;;;;;;14.80;5.27;;;;;;;;;;5071050;28;20108;-76
2023/02/13 04:25:05;;;;;;;12.57;5.10;;;;;;;;;;5072217;28;20025;-76
2023/02/13 04:27:31;;;;;;;16.70;5.70;;;;;;;;;;5072656;28;20020;-76
2023/02/13 04:29:56;;;;;;;16.73;6.07;;;;;;;;;;5070962;28;20067;-76
2023/02/13 04:32:21;;;;;;;15.67;5.73;;;;;;;;;;5072137;28;20020;-76
2023/02/13 04:34:46;;;;;;;16.80;5.77;;;;;;;;;;5070474;28;20048;-76
2023/02/13 04:37:11;;;;;;;15.87;5.90;;;;;;;;;;5071748;28;20017;-76
2023/02/13 04:39:37;;;;;;;17.50;5.43;;;;;;;;;;5071921;28;20021;-76
2023/02/13 04:42:02;;;;;;;17.13;5.60;;;;;;;;;;5069371;28;20032;-76
2023/02/13 04:44:27;;;;;;;17.90;6.13;;;;;;;;;;5069663;28;20414;-76
2023/02/13 04:46:52;;;;;;;17.10;5.20;;;;;;;;;;5065342;28;20017;-76
2023/02/13 04:49:18;;;;;;;14.20;5.40;;;;;;;;;;5071355;28;20096;-76
2023/02/13 04:51:43;;;;;;;13.23;5.17;;;;;;;;;;5069119;28;20356;-76
2023/02/13 04:54:09;;;;;;;14.77;5.30;;;;;;;;;;5071286;28;20436;-77
2023/02/13 04:56:34;;;;;;;17.93;6.40;;;;;;;;;;5070239;28;20032;-76
2023/02/13 04:58:59;;;;;;;11.50;4.93;;;;;;;;;;5071416;28;20032;-76
2023/02/13 05:01:24;;;;;;;12.27;4.23;;;;;;;;;;5070935;28;20106;-77
2023/02/13 05:03:50;;;;;;;12.43;4.87;;;;;;;;;;5071657;28;20012;-77
2023/02/13 05:06:15;;;;;;;12.83;4.50;;;;;;;;;;5071234;28;20027;-76
2023/02/13 05:08:40;;;;;;;15.97;5.23;;;;;;;;;;5071643;28;20100;-76
2023/02/13 05:11:05;;;;;;;12.33;4.57;;;;;;;;;;5070190;28;20111;-76
2023/02/13 05:13:31;;;;;;;9.30;4.80;;;;;;;;;;5070663;28;20021;-76
2023/02/13 05:15:56;;;;;;;11.00;3.73;;;;;;;;;;5071649;28;20020;-76
2023/02/13 05:18:21;;;;;;;11.00;4.07;;;;;;;;;;5071230;28;20021;-76
2023/02/13 05:23:21;;;;;;;12.73;4.23;;;;;;;;;;5071296;28;20043;-76
2023/02/13 05:23:32;;;;;;;8.77;4.07;;;;;;;;;;5071124;28;20024;-76
2023/02/13 05:25:57;;;;;;;11.33;4.77;;;;;;;;;;5069980;28;20546;-76
2023/02/13 05:31:06;;;;;;;14.03;5.37;;;;;;;;;;5071382;28;20031;-76
2023/02/13 05:33:31;;;;;;;8.67;4.30;;;;;;;;;;5070890;28;20025;-76
2023/02/13 05:35:56;;;;;;;11.00;5.20;;;;;;;;;;5071141;28;20017;-76
2023/02/13 05:38:21;;;;;;;9.07;4.23;;;;;;;;;;5070517;28;20020;-76
2023/02/13 05:40:46;;;;;;;12.87;4.67;;;;;;;;;;5070937;28;20024;-76
2023/02/13 05:43:12;;;;;;;12.80;4.10;;;;;;;;;;5074467;28;20162;-76
2023/02/13 05:45:37;;;;;;;9.97;3.83;;;;;;;;;;5068818;28;20012;-76
2023/02/13 05:48:02;;;;;;;10.10;4.70;;;;;;;;;;5077774;28;20034;-76
2023/02/13 05:50:27;;;;;;;9.50;4.07;;;;;;;;;;5074757;28;20054;-76
2023/02/13 05:52:52;;;;;;;8.43;4.23;;;;;;;;;;5077837;28;20020;-76
2023/02/13 05:55:18;;;;;;;12.80;4.43;;;;;;;;;;5076009;28;20487;-76
2023/02/13 05:57:43;;;;;;;7.87;3.80;;;;;;;;;;5077419;28;20020;-76
2023/02/13 06:00:08;;;;;;;8.70;3.80;;;;;;;;;;5077358;28;20506;-76
2023/02/13 06:02:33;;;;;;;14.20;4.43;;;;;;;;;;5074383;28;20107;-77
2023/02/13 06:04:59;;;;;;;9.17;4.10;;;;;;;;;;5077458;28;20066;-76
2023/02/13 06:07:24;;;;;;;9.77;3.90;;;;;;;;;;5077325;28;20405;-76
2023/02/13 06:09:49;;;;;;;13.40;4.90;;;;;;;;;;5075953;28;20043;-76
2023/02/13 06:12:14;;;;;;;12.97;4.23;;;;;;;;;;5077386;28;20100;-76
2023/02/13 06:14:39;;;;;;;11.07;4.53;;;;;;;;;;5075488;28;20036;-76
2023/02/13 06:17:05;;;;;;;11.03;4.50;;;;;;;;;;5077588;28;20012;-77
2023/02/13 06:19:30;;;;;;;8.27;4.10;;;;;;;;;;5077399;28;20463;-76
2023/02/13 06:21:55;;;;;;;14.10;5.10;;;;;;;;;;5076130;28;20016;-76
2023/02/13 06:24:20;;;;;;;13.33;5.73;;;;;;;;;;5077357;28;20016;-76
2023/02/13 06:26:45;;;;;;;14.63;6.00;;;;;;;;;;5076133;28;20387;-77
2023/02/13 06:29:11;;;;;;;13.53;5.83;;;;;;;;;;5075780;28;20048;-77
2023/02/13 06:31:37;;;;;;;19.97;6.67;;;;;;;;;;5076431;28;20480;-76
2023/02/13 06:34:03;;;;;;;10.17;4.50;;;;;;;;;;5077106;28;20094;-76
2023/02/13 06:36:28;;;;;;;12.00;4.03;;;;;;;;;;5076459;28;20108;-76
2023/02/13 06:38:53;;;;;;;8.67;3.53;;;;;;;;;;5075388;28;20044;-76
2023/02/13 06:41:18;;;;;;;10.97;3.27;;;;;;;;;;5077030;28;20468;-76
2023/02/13 06:43:44;;;;;;;9.80;3.73;;;;;;;;;;5075881;28;20036;-76
2023/02/13 06:46:09;;;;;;;10.33;3.80;;;;;;;;;;5075734;28;20425;-76
2023/02/13 06:48:34;;;;;;;7.70;3.67;;;;;;;;;;5077185;28;20032;-76
2023/02/13 06:51:02;;;;;;;8.93;3.17;;;;;;;;;;5075998;28;20025;-76
2023/02/13 06:53:28;;;;;;;10.87;3.83;;;;;;;;;;5077020;28;20059;-76
2023/02/13 06:55:54;;;;;;;9.13;4.10;;;;;;;;;;5070823;28;20048;-76
2023/02/13 06:58:20;;;;;;;9.53;4.33;;;;;;;;;;5072884;28;20024;-77
2023/02/13 07:00:45;;;;;;;9.80;3.83;;;;;;;;;;5071228;28;20020;-76
2023/02/13 07:03:10;;;;;;;6.90;3.80;;;;;;;;;;5072497;28;20665;-76
2023/02/13 07:05:38;;;;;;;13.60;4.03;;;;;;;;;;5073236;28;20028;-76
2023/02/13 07:08:03;;;;;;;6.33;3.33;;;;;;;;;;5073461;28;20092;-76
2023/02/13 07:10:28;;;;;;;9.63;3.73;;;;;;;;;;5073561;28;20020;-76
2023/02/13 07:12:53;;;;;;;9.07;3.67;;;;;;;;;;5073959;28;20371;-76
2023/02/13 07:15:19;;;;;;;10.50;3.87;;;;;;;;;;5072467;28;20440;-76
2023/02/13 07:17:44;;;;;;;9.33;4.17;;;;;;;;;;5073057;28;20517;-77
2023/02/13 07:20:09;;;;;;;11.00;3.57;;;;;;;;;;5073073;28;20556;-76
2023/02/13 07:22:34;;;;;;;8.53;3.47;;;;;;;;;;5073236;28;20020;-76
2023/02/13 07:25:00;;;;;;;7.40;3.47;;;;;;;;;;5072181;28;20024;-76
2023/02/13 07:27:28;;;;;;;8.40;3.77;;;;;;;;;;5070339;28;20025;-76
2023/02/13 07:29:53;;;;;;;8.53;4.03;;;;;;;;;;5071716;28;20032;-76
2023/02/13 07:32:18;;;;;;;8.50;3.77;;;;;;;;;;5071170;28;20017;-76
2023/02/13 07:34:43;;;;;;;9.90;4.37;;;;;;;;;;5071064;28;20036;-76
2023/02/13 07:37:10;;;;;;;14.20;4.30;;;;;;;;;;5072120;28;20129;-77
2023/02/13 07:39:37;;;;;;;10.17;4.83;;;;;;;;;;5070856;28;20044;-77
2023/02/13 07:42:02;;;;;;;12.23;4.80;;;;;;;;;;5071905;28;20063;-75
2023/02/13 07:44:29;;;;;;;9.03;4.23;;;;;;;;;;5069651;28;20044;-77
2023/02/13 07:46:54;;;;;;;7.27;3.97;;;;;;;;;;5066587;28;20131;-77
2023/02/13 07:49:19;;;;;;;7.70;3.60;;;;;;;;;;5071835;28;20552;-77
2023/02/13 07:51:44;;;;;;;12.17;4.60;;;;;;;;;;5072961;28;20470;-76
2023/02/13 07:54:09;;;;;;;11.77;3.93;;;;;;;;;;5067967;28;20048;-76
2023/02/13 07:56:35;;;;;;;9.97;4.03;;;;;;;;;;5070524;28;20037;-76
2023/02/13 07:59:00;;;;;;;11.20;4.80;;;;;;;;;;5070855;28;20119;-76
2023/02/13 08:01:25;;;;;;;9.47;4.33;;;;;;;;;;5071139;28;20008;-76
2023/02/13 08:03:51;;;;;;;11.87;4.30;;;;;;;;;;5071600;28;20086;-75
2023/02/13 08:06:16;;;;;;;9.60;4.10;;;;;;;;;;5068555;28;20406;-75
2023/02/13 08:08:42;;;;;;;9.43;3.73;;;;;;;;;;5072884;28;20034;-75
2023/02/13 08:13:55;;;;;;;11.37;4.40;;;;;;;;;;5059497;28;20089;-76
2023/02/13 08:16:20;;;;;;;14.00;4.47;;;;;;;;;;5071649;28;20033;-75
2023/02/13 08:18:45;;;;;;;11.57;4.07;;;;;;;;;;5070437;28;20108;-75
2023/02/13 08:21:10;;;;;;;10.40;4.50;;;;;;;;;;5071466;28;20028;-77
2023/02/13 08:23:35;;;;;;;9.03;4.00;;;;;;;;;;5068828;28;20470;-77
2023/02/13 08:26:01;;;;;;;9.23;3.97;;;;;;;;;;5070019;28;20036;-77
2023/02/13 08:28:27;;;;;;;14.97;4.90;;;;;;;;;;5071408;28;20036;-77
2023/02/13 08:30:52;;;;;;;10.47;4.80;;;;;;;;;;5071285;28;20483;-77
2023/02/13 08:33:17;;;;;;;10.73;4.10;;;;;;;;;;5068817;28;20020;-76
2023/02/13 08:35:45;;;;;;;9.93;4.47;;;;;;;;;;5068868;28;20115;-76
2023/02/13 08:38:11;;;;;;;10.80;4.27;;;;;;;;;;5069459;28;20060;-76
2023/02/13 08:40:36;;;;;;;11.23;4.50;;;;;;;;;;5070719;28;20063;-76
2023/02/13 08:43:02;;;;;;;10.20;4.43;;;;;;;;;;5067187;28;20013;-76
2023/02/13 08:45:27;;;;;;;13.27;4.80;;;;;;;;;;5060132;28;20040;-76
2023/02/13 08:47:59;;;;;;;11.73;5.10;;;;;;;;;;5071953;28;20100;-76
2023/02/13 08:50:25;;;;;;;10.77;3.60;;;;;;;;;;5068923;28;20099;-77
2023/02/13 08:52:50;;;;;;;13.80;5.10;;;;;;;;;;5068951;28;20136;-76
2023/02/13 08:55:15;;;;;;;11.07;5.00;;;;;;;;;;5071647;28;20095;-76
2023/02/13 08:57:40;;;;;;;10.77;4.57;;;;;;;;;;5070914;28;20020;-76
2023/02/13 09:00:06;;;;;;;11.80;4.23;;;;;;;;;;5071594;28;20341;-76
2023/02/13 09:02:31;;;;;;;10.77;4.13;;;;;;;;;;5070687;28;20016;-76
2023/02/13 09:04:56;;;;;;;10.77;4.10;;;;;;;;;;5071657;28;20020;-77
2023/02/13 09:07:21;;;;;;;12.33;4.37;;;;;;;;;;5070851;28;20028;-77
2023/02/13 09:09:47;;;;;;;12.47;4.47;;;;;;;;;;5071399;28;20016;-76
2023/02/13 09:12:12;;;;;;;10.20;4.80;;;;;;;;;;5067148;28;20016;-77
2023/02/13 09:14:38;;;;;;;15.40;4.53;;;;;;;;;;5069352;28;20467;-77
2023/02/13 09:17:03;;;;;;;11.33;5.60;;;;;;;;;;5068735;28;20013;-76
2023/02/13 09:19:28;;;;;;;9.47;3.90;;;;;;;;;;5071220;28;20013;-77
2023/02/13 09:21:53;;;;;;;11.33;4.60;;;;;;;;;;5069342;28;20418;-76
2023/02/13 09:24:18;;;;;;;9.37;4.47;;;;;;;;;;5070186;28;20091;-76
2023/02/13 09:26:44;;;;;;;10.03;4.53;;;;;;;;;;5070164;28;20025;-76
2023/02/13 09:29:09;;;;;;;8.23;3.83;;;;;;;;;;5071387;28;20088;-76
2023/02/13 09:31:34;;;;;;;8.10;3.70;;;;;;;;;;5069376;28;20051;-77
2023/02/13 09:33:59;;;;;;;9.13;4.03;;;;;;;;;;5068691;28;21596;-77
2023/02/13 09:36:24;;;;;;;11.67;5.23;;;;;;;;;;5069894;28;20032;-77
2023/02/13 09:38:54;;;;;;;11.77;4.27;;;;;;;;;;5071216;28;20023;-77
2023/02/13 09:41:23;;;;;;;10.27;3.97;;;;;;;;;;5071199;28;20034;-77
2023/02/13 09:43:54;;;;;;;8.80;4.13;;;;;;;;;;5068213;28;20008;-76
2023/02/13 09:46:24;;;;;;;10.73;4.63;;;;;;;;;;5064750;28;20036;-76
2023/02/13 09:48:52;;;;;;;11.73;4.50;;;;;;;;;;5070302;28;20039;-77
2023/02/13 09:51:19;;;;;;;10.23;4.23;;;;;;;;;;5068206;28;20021;-77
2023/02/13 09:53:55;;;;;;;8.37;4.03;;;;;;;;;;5068920;28;20096;-77
2023/02/13 09:56:27;;;;;;;10.07;4.73;;;;;;;;;;5069896;28;20009;-77
2023/02/13 09:59:12;;;;;;;9.65;4.38;;;;;;;;;;5069588;28;20324;-77
2023/02/13 10:01:40;;;;;;;11.57;4.67;;;;;;;;;;5047575;28;20037;-77
2023/02/13 10:04:24;;;;;;;17.47;4.43;;;;;;;;;;5070753;28;20047;-77
2023/02/13 10:06:52;;;;;;;10.87;4.40;;;;;;;;;;5068591;28;20028;-77
2023/02/13 10:09:20;;;;;;;13.60;4.47;;;;;;;;;;5067987;28;20177;-77
2023/02/13 10:12:09;;;;;;;11.83;4.37;;;;;;;;;;5068939;28;20383;-77
2023/02/13 10:14:41;;;;;;;12.80;5.00;;;;;;;;;;5068883;28;20060;-77
2023/02/13 10:17:10;;;;;;;11.33;4.73;;;;;;;;;;5063966;28;20077;-77
2023/02/13 10:19:45;;;;;;;9.73;4.57;;;;;;;;;;5070631;28;20043;-77
2023/02/13 10:22:14;;;;;;;11.63;3.73;;;;;;;;;;5066448;28;20070;-77
2023/02/13 10:24:46;;;;;;;11.03;4.20;;;;;;;;;;5070582;28;20017;-77
2023/02/13 10:27:17;;;;;;;9.77;3.80;;;;;;;;;;5070806;28;20029;-77
2023/02/13 10:32:30;;;;;;;10.98;4.85;;;;;;;;;;5066261;28;20116;-77
2023/02/13 10:34:57;;;;;;;10.43;4.32;;;;;;;;;;5072523;28;20063;-78
2023/02/13 10:37:22;;;;;;;11.63;4.82;;;;;;;;;;5069396;28;20028;-75
2023/02/13 10:39:49;;;;;;;13.52;4.47;;;;;;;;;;5073779;28;20031;-76
2023/02/13 10:42:23;;;;;;;11.02;4.28;;;;;;;;;;5070953;28;20831;-76
2023/02/13 10:44:48;;;;;;;9.70;4.17;;;;;;;;;;5076776;28;20020;-77
2023/02/13 10:47:20;;;;;;;8.38;3.80;;;;;;;;;;5086838;28;20415;-78
2023/02/13 10:49:51;;;;;;;6.50;3.00;;;;;;;;;;5094715;28;20070;-78
2023/02/13 10:52:27;;;;;;;8.68;4.18;;;;;;;;;;5081606;28;20107;-78
2023/02/13 10:54:55;;;;;;;8.50;3.40;;;;;;;;;;5075940;28;20028;-77
2023/02/13 10:57:26;;;;;;;9.02;3.92;;;;;;;;;;5094294;28;20027;-78
2023/02/13 11:00:03;;;;;;;8.40;4.13;;;;;;;;;;5092756;28;20471;-77
2023/02/13 11:02:33;;;;;;;7.35;3.47;;;;;;;;;;5079085;28;20371;-77
2023/02/13 11:05:10;;;;;;;6.32;2.78;;;;;;;;;;5093304;28;20013;-77
2023/02/13 11:07:35;;;;;;;4.97;2.25;;;;;;;;;;5078844;28;20429;-79
2023/02/13 11:10:04;;;;;;;8.43;3.08;;;;;;;;;;5092371;28;20169;-79
2023/02/13 11:12:31;;;;;;;7.90;2.25;;;;;;;;;;5064196;28;20039;-79
2023/02/13 11:15:04;;;;;;;6.00;2.75;;;;;;;;;;5089500;28;20028;-75
2023/02/13 11:17:38;;;;;;;7.10;2.65;;;;;;;;;;5082248;28;20035;-75
2023/02/13 11:20:21;;;;;;;5.63;2.75;;;;;;;;;;5087432;28;20016;-74
2023/02/13 11:22:46;;;;;;;6.47;3.05;;;;;;;;;;5090050;28;20036;-77
2023/02/13 11:25:17;;;;;;;8.00;3.10;;;;;;;;;;5089528;28;20111;-77
2023/02/13 11:27:42;;;;;;;11.07;3.25;;;;;;;;;;5080327;28;20035;-77
2023/02/13 11:30:16;;;;;;;4.97;2.28;;;;;;;;;;5087566;28;20056;-77
2023/02/13 11:32:54;;;;;;;6.43;2.92;;;;;;;;;;5087044;28;20382;-77
2023/02/13 11:35:30;;;;;;;5.65;2.35;;;;;;;;;;5091790;28;20371;-77
2023/02/13 11:38:14;;;;;;;10.23;3.50;;;;;;;;;;5092088;28;20032;-77
2023/02/13 11:40:41;;;;;;;1.63;0.73;;;;;;;;;;5074438;28;20124;-77
2023/02/13 11:43:06;;;;;;;9.30;2.08;;;;;;;;;;5083213;28;20017;-77
2023/02/13 11:45:32;;;;;;;4.43;1.98;;;;;;;;;;5072411;28;20024;-77
2023/02/13 11:47:57;;;;;;;7.40;2.58;;;;;;;;;;5080836;28;21520;-77
2023/02/13 11:50:31;;;;;;;6.72;2.35;;;;;;;;;;5075173;28;20448;-77
2023/02/13 11:52:59;;;;;;;5.22;2.30;;;;;;;;;;5076633;28;20106;-77
2023/02/13 11:55:30;;;;;;;5.18;2.22;;;;;;;;;;5071952;28;20442;-77
2023/02/13 11:57:56;;;;;;;6.32;2.33;;;;;;;;;;5075554;28;20020;-77
2023/02/13 12:00:27;;;;;;;8.80;2.42;;;;;;;;;;5071094;28;20012;-77
2023/02/13 12:02:52;;;;;;;4.60;1.77;;;;;;;;;;5091388;28;20611;-77
2023/02/13 12:05:22;;;;;;;4.60;1.92;;;;;;;;;;5082983;28;20154;-77
2023/02/13 12:07:47;;;;;;;5.95;2.42;;;;;;;;;;5075427;28;20020;-77
2023/02/13 12:10:18;;;;;;;3.92;1.95;;;;;;;;;;5072060;28;20031;-77
2023/02/13 12:12:52;;;;;;;5.82;2.30;;;;;;;;;;5066862;28;20028;-77
2023/02/13 12:15:20;;;;;;;4.20;2.05;;;;;;;;;;5070376;28;20028;-77
2023/02/13 12:17:48;;;;;;;8.93;2.58;;;;;;;;;;5070245;28;20032;-77
2023/02/13 12:20:14;;;;;;;5.90;2.35;;;;;;;;;;5071577;28;20391;-77
2023/02/13 12:22:51;;;;;;;10.32;3.75;;;;;;;;;;5070738;28;20028;-77
2023/02/13 12:25:40;;;;;;;5.68;2.55;;;;;;;;;;5071231;28;20056;-77
2023/02/13 12:28:24;;;;;;;6.57;2.45;;;;;;;;;;5069833;28;20046;-77
2023/02/13 12:31:08;;;;;;;7.35;2.47;;;;;;;;;;5071160;28;20039;-77
2023/02/13 12:34:06;;;;;;;8.05;2.47;;;;;;;;;;5082300;28;20024;-77
2023/02/13 12:36:44;;;;;;;6.25;2.60;;;;;;;;;;5035282;28;20040;-77
2023/02/13 12:39:30;;;;;;;5.13;2.10;;;;;;;;;;5086780;28;20484;-77
2023/02/13 12:41:58;;;;;;;4.57;2.38;;;;;;;;;;5092168;28;20023;-77
2023/02/13 12:44:36;;;;;;;6.32;2.55;;;;;;;;;;5088002;28;20184;-76
2023/02/13 12:47:20;;;;;;;7.43;2.45;;;;;;;;;;5079032;28;20039;-77
2023/02/13 12:50:00;;;;;;;5.45;2.00;;;;;;;;;;5091868;28;20034;-77
2023/02/13 12:52:37;;;;;;;6.95;1.83;;;;;;;;;;5090052;28;20485;-77
2023/02/13 12:55:11;;;;;;;7.40;2.80;;;;;;;;;;5077745;28;20035;-77
2023/02/13 12:57:39;;;;;;;3.88;1.88;;;;;;;;;;5074531;28;20020;-77
2023/02/13 13:00:23;;;;;;;4.63;1.90;;;;;;;;;;5089295;28;20045;-77
2023/02/13 13:02:52;;;;;;;5.97;2.40;;;;;;;;;;5079009;28;20016;-77
2023/02/13 13:05:23;;;;;;;3.50;1.83;;;;;;;;;;5078830;28;20078;-77
2023/02/13 13:08:00;;;;;;;5.15;2.45;;;;;;;;;;5069717;28;20029;-77
2023/02/13 13:10:25;;;;;;;6.35;2.50;;;;;;;;;;5057736;28;20048;-77
2023/02/13 13:13:17;;;;;;;3.88;1.70;;;;;;;;;;5065137;28;20076;-77
2023/02/13 13:15:54;;;;;;;5.88;2.25;;;;;;;;;;5071320;28;20024;-77
2023/02/13 13:18:20;;;;;;;7.90;2.38;;;;;;;;;;5070555;28;20503;-77
2023/02/13 13:20:53;;;;;;;4.10;1.55;;;;;;;;;;5071092;28;20125;-77
2023/02/13 13:23:20;;;;;;;3.78;1.83;;;;;;;;;;5070485;28;20349;-77
2023/02/13 13:25:55;;;;;;;5.53;2.17;;;;;;;;;;5071062;28;20456;-77
2023/02/13 13:28:21;;;;;;;5.70;1.77;;;;;;;;;;5071074;28;20028;-77
2023/02/13 13:30:47;;;;;;;5.93;2.08;;;;;;;;;;5071438;28;20056;-77
2023/02/13 13:33:15;;;;;;;5.15;2.17;;;;;;;;;;5071148;28;20123;-77
2023/02/13 13:35:43;;;;;;;9.45;2.55;;;;;;;;;;5067398;28;20044;-77
2023/02/13 13:38:24;;;;;;;4.20;1.52;;;;;;;;;;5071536;28;20036;-77
2023/02/13 13:40:52;;;;;;;4.47;1.92;;;;;;;;;;5068987;28;20028;-76
2023/02/13 13:43:26;;;;;;;5.15;2.08;;;;;;;;;;5070178;28;20078;-77
2023/02/13 13:46:09;;;;;;;5.72;2.10;;;;;;;;;;5061004;28;20122;-77
2023/02/13 13:48:42;;;;;;;2.90;1.55;;;;;;;;;;5066894;28;20475;-77
2023/02/13 13:51:08;;;;;;;3.72;1.63;;;;;;;;;;5065549;28;20424;-76
2023/02/13 13:53:34;;;;;;;3.10;1.77;;;;;;;;;;5063642;28;20480;-76
2023/02/13 13:56:04;;;;;;;2.92;1.50;;;;;;;;;;5066701;28;20031;-76
2023/02/13 13:58:33;;;;;;;3.22;1.80;;;;;;;;;;5069208;28;20052;-76
2023/02/13 14:01:14;;;;;;;5.80;2.45;;;;;;;;;;5069035;28;20009;-76
2023/02/13 14:03:39;;;;;;;5.75;2.58;;;;;;;;;;5071171;28;20536;-76
2023/02/13 14:06:06;;;;;;;3.83;1.65;;;;;;;;;;5074136;28;20123;-76
2023/02/13 14:08:43;;;;;;;5.15;1.92;;;;;;;;;;5074780;28;20643;-76
2023/02/13 14:11:26;;;;;;;3.17;1.67;;;;;;;;;;5073178;28;20043;-76
2023/02/13 14:13:52;;;;;;;4.43;1.70;;;;;;;;;;5059866;28;20055;-76
2023/02/13 14:16:37;;;;;;;3.28;1.60;;;;;;;;;;5074286;28;20450;-76
2023/02/13 14:19:02;;;;;;;4.57;2.00;;;;;;;;;;5074024;28;20017;-76
2023/02/13 14:21:27;;;;;;;4.18;1.83;;;;;;;;;;5067396;28;20024;-76
2023/02/13 14:23:53;;;;;;;3.63;1.65;;;;;;;;;;5059874;28;20020;-76
2023/02/13 14:26:28;;;;;;;5.50;1.92;;;;;;;;;;5074154;28;20142;-76
2023/02/13 14:28:56;;;;;;;4.85;1.40;;;;;;;;;;5072546;28;20024;-76
2023/02/13 14:31:28;;;;;;;3.72;1.52;;;;;;;;;;5074387;28;20024;-76
2023/02/13 14:34:00;;;;;;;3.35;1.67;;;;;;;;;;5072207;28;20029;-76
2023/02/13 14:36:31;;;;;;;5.07;1.73;;;;;;;;;;5073689;28;20103;-76
2023/02/13 14:38:57;;;;;;;3.10;1.45;;;;;;;;;;5074032;28;20035;-76
2023/02/13 14:41:41;;;;;;;3.63;1.40;;;;;;;;;;5073803;28;20052;-76
2023/02/13 14:44:14;;;;;;;1.92;1.10;;;;;;;;;;5073685;28;20012;-76
2023/02/13 14:46:40;;;;;;;3.85;1.55;;;;;;;;;;5070399;28;20151;-76
2023/02/13 14:49:23;;;;;;;3.22;1.65;;;;;;;;;;5073365;28;20439;-76
2023/02/13 14:51:50;;;;;;;3.88;1.40;;;;;;;;;;5070308;28;20044;-76
2023/02/13 14:54:19;;;;;;;3.42;1.10;;;;;;;;;;5073631;28;20028;-76
2023/02/13 14:56:46;;;;;;;2.97;1.50;;;;;;;;;;5070790;28;20047;-76
2023/02/13 14:59:16;;;;;;;2.90;1.30;;;;;;;;;;5073471;28;20459;-76
2023/02/13 15:02:03;;;;;;;4.43;1.23;;;;;;;;;;5070760;28;20021;-76
2023/02/13 15:04:37;;;;;;;2.03;0.95;;;;;;;;;;5069889;28;20043;-76
2023/02/13 15:07:03;;;;;;;4.15;1.85;;;;;;;;;;5067315;28;20028;-76
2023/02/13 15:09:31;;;;;;;5.75;1.88;;;;;;;;;;5069160;28;20036;-76
2023/02/13 15:11:57;;;;;;;3.92;1.58;;;;;;;;;;5073217;28;20092;-76
2023/02/13 15:14:35;;;;;;;3.20;1.20;;;;;;;;;;5072845;28;20447;-76
2023/02/13 15:17:12;;;;;;;2.65;1.13;;;;;;;;;;5068240;28;20159;-76
2023/02/13 15:19:42;;;;;;;3.42;1.33;;;;;;;;;;5072943;28;20024;-76
2023/02/13 15:22:16;;;;;;;6.72;1.50;;;;;;;;;;5073140;28;20422;-76
2023/02/13 15:24:46;;;;;;;4.75;1.60;;;;;;;;;;5072996;28;20028;-76
2023/02/13 15:27:16;;;;;;;4.40;1.70;;;;;;;;;;5067677;28;20495;-76
2023/02/13 15:29:52;;;;;;;2.58;1.30;;;;;;;;;;5070120;28;20046;-76
2023/02/13 15:32:24;;;;;;;4.55;1.77;;;;;;;;;;5071169;28;20037;-76
2023/02/13 15:34:50;;;;;;;4.13;2.03;;;;;;;;;;5070060;28;20090;-76